Time;durP1;ratioP1;P1;durP2;ratioP2;P2;SDS_P1;SDS_P2;PMS_P1;PMS_P2;Temp;Humidity;BMP_temperature;BMP_pressure;BME280_temperature;BME280_humidity;BME280_pressure;Samples;Min_cycle;Max_cycle;Signal;HPM_P1;HPM_P2
2021/07/12 00:00:15;;;;;;;0.10;0.10;;;;;;;21.80;58.01;100015.19;4906538;29;20440;-75
2021/07/12 00:02:41;;;;;;;0.20;0.10;;;;;;;21.75;58.06;100006.69;4909080;29;20036;-76
2021/07/12 00:05:08;;;;;;;0.20;0.20;;;;;;;21.69;58.75;100004.81;4880799;29;20048;-75
2021/07/12 00:07:34;;;;;;;0.10;0.10;;;;;;;21.61;58.89;100005.03;4878307;29;20088;-75
2021/07/12 00:10:00;;;;;;;0.10;0.10;;;;;;;21.55;59.34;100005.91;4875105;29;20036;-75
2021/07/12 00:12:27;;;;;;;0.30;0.20;;;;;;;21.49;59.26;100006.75;4906079;29;20136;-73
2021/07/12 00:14:53;;;;;;;0.28;0.10;;;;;;;21.48;59.29;100007.81;4902221;29;20048;-75
2021/07/12 00:17:19;;;;;;;0.20;0.20;;;;;;;21.47;59.12;100014.41;4906956;29;20099;-76
2021/07/12 00:19:45;;;;;;;0.32;0.17;;;;;;;21.42;59.80;100018.59;4892918;29;20580;-74
2021/07/12 00:22:11;;;;;;;0.20;0.20;;;;;;;21.37;60.39;100010.16;4902995;29;20049;-73
2021/07/12 00:24:37;;;;;;;0.80;0.40;;;;;;;21.35;59.66;100016.91;4877359;29;20071;-75
2021/07/12 00:27:03;;;;;;;1.10;0.20;;;;;;;21.37;59.51;100012.91;4921901;29;20040;-73
2021/07/12 00:29:29;;;;;;;0.52;0.20;;;;;;;21.42;59.60;100017.75;4893572;29;20490;-75
2021/07/12 00:31:55;;;;;;;0.20;0.20;;;;;;;21.41;59.58;100021.59;4909618;29;20048;-77
2021/07/12 00:34:21;;;;;;;0.13;0.13;;;;;;;21.37;59.71;100015.66;4893634;29;20047;-75
2021/07/12 00:36:48;;;;;;;0.10;0.10;;;;;;;21.37;59.54;100021.16;4880138;29;20124;-73
2021/07/12 00:39:14;;;;;;;0.10;0.10;;;;;;;21.32;60.08;100018.19;4868305;29;20085;-76
2021/07/12 00:41:39;;;;;;;0.15;0.15;;;;;;;21.32;59.76;100020.09;4909037;29;20040;-74
2021/07/12 00:44:06;;;;;;;0.10;0.10;;;;;;;21.28;59.90;100021.53;4905133;29;20068;-75
2021/07/12 00:46:33;;;;;;;0.32;0.10;;;;;;;21.22;60.20;100017.75;4907375;29;20147;-74
2021/07/12 00:48:59;;;;;;;0.10;0.10;;;;;;;21.19;60.69;100029.16;4909532;29;20115;-74
2021/07/12 00:51:26;;;;;;;0.10;0.10;;;;;;;21.16;61.08;100024.09;4908702;29;20075;-74
2021/07/12 00:53:52;;;;;;;0.10;0.10;;;;;;;21.13;61.46;100025.38;4908219;29;20778;-75
2021/07/12 00:56:26;;;;;;;0.10;0.10;;;;;;;21.07;61.81;100019.88;4909680;29;20598;-73
2021/07/12 00:58:53;;;;;;;0.10;0.10;;;;;;;21.05;61.22;100016.47;4893561;29;20138;-75
2021/07/12 01:01:21;;;;;;;0.17;0.15;;;;;;;21.02;61.10;100022.38;4895949;29;20051;-74
2021/07/12 01:03:48;;;;;;;0.10;0.10;;;;;;;20.98;61.65;100023.88;4908883;29;20055;-74
2021/07/12 01:06:14;;;;;;;0.10;0.10;;;;;;;20.94;61.69;100016.03;4923230;29;20048;-75
2021/07/12 01:08:43;;;;;;;0.10;0.10;;;;;;;20.88;61.43;100030.63;4907815;29;20059;-73
2021/07/12 01:11:22;;;;;;;0.10;0.10;;;;;;;20.89;61.03;100035.06;4894300;29;20050;-75
2021/07/12 01:14:25;;;;;;;0.10;0.10;;;;;;;20.91;61.20;100034.84;4872121;29;20044;-75
2021/07/12 01:17:26;;;;;;;0.20;0.20;;;;;;;20.89;61.52;100037.81;4908898;29;20056;-75
2021/07/12 01:20:15;;;;;;;0.10;0.10;;;;;;;20.85;61.01;100033.78;4909748;29;20139;-75
2021/07/12 01:23:15;;;;;;;0.10;0.10;;;;;;;20.80;61.62;100040.97;4909041;29;20071;-76
2021/07/12 01:26:18;;;;;;;0.10;0.10;;;;;;;20.80;61.29;100036.31;4876782;29;20093;-76
2021/07/12 01:29:03;;;;;;;0.10;0.10;;;;;;;20.78;61.73;100038.44;4885142;29;20083;-75
2021/07/12 01:31:55;;;;;;;0.10;0.10;;;;;;;20.87;61.17;100042.66;4891835;29;20044;-73
2021/07/12 01:34:32;;;;;;;0.10;0.10;;;;;;;20.92;60.86;100042.91;4891987;29;20052;-75
2021/07/12 01:37:18;;;;;;;0.10;0.10;;;;;;;20.94;60.89;100043.53;4905659;29;20047;-75
2021/07/12 01:40:16;;;;;;;0.10;0.10;;;;;;;20.91;61.23;100043.09;4908594;29;20123;-74
2021/07/12 01:42:53;;;;;;;0.10;0.10;;;;;;;20.91;61.30;100046.72;4904156;29;20044;-76
2021/07/12 01:45:21;;;;;;;0.10;0.10;;;;;;;20.85;61.61;100039.28;4877026;29;20073;-74
2021/07/12 01:48:10;;;;;;;0.10;0.10;;;;;;;20.86;60.98;100051.97;4877191;29;20060;-73
2021/07/12 01:50:51;;;;;;;0.10;0.10;;;;;;;20.93;60.96;100054.75;4894381;29;20084;-74
2021/07/12 01:53:26;;;;;;;0.10;0.10;;;;;;;20.92;61.64;100056.66;4896036;29;20040;-74
2021/07/12 01:55:58;;;;;;;0.10;0.10;;;;;;;20.89;61.32;100057.06;4893283;29;20047;-74
2021/07/12 01:58:45;;;;;;;0.10;0.10;;;;;;;20.91;61.55;100057.72;4892305;29;20126;-74
2021/07/12 02:01:15;;;;;;;0.10;0.10;;;;;;;20.92;61.56;100055.81;4894344;29;20391;-74
2021/07/12 02:03:43;;;;;;;0.10;0.10;;;;;;;20.98;60.79;100062.34;4896214;29;20553;-74
2021/07/12 02:06:12;;;;;;;0.28;0.13;;;;;;;20.98;60.53;100059.59;4913330;29;20044;-74
2021/07/12 02:08:43;;;;;;;0.10;0.10;;;;;;;21.03;61.17;100068.09;4913599;29;20084;-74
2021/07/12 02:11:15;;;;;;;0.20;0.20;;;;;;;21.05;61.47;100065.97;4877031;29;20049;-74
2021/07/12 02:13:44;;;;;;;0.15;0.15;;;;;;;21.07;61.22;100069.34;4896890;29;20044;-74
2021/07/12 02:16:20;;;;;;;0.65;0.10;;;;;;;21.09;61.76;100072.72;4887752;29;20435;-75
2021/07/12 02:18:49;;;;;;;1.75;0.20;;;;;;;21.12;62.05;100070.41;4875177;29;20040;-74
2021/07/12 02:21:34;;;;;;;0.93;0.50;;;;;;;21.16;61.67;100073.59;4876377;29;20054;-74
2021/07/12 02:24:18;;;;;;;0.30;0.20;;;;;;;21.19;61.77;100078.66;4913805;29;20060;-73
2021/07/12 02:26:44;;;;;;;0.20;0.20;;;;;;;21.21;61.00;100065.56;4881623;29;20362;-74
2021/07/12 02:29:12;;;;;;;0.10;0.10;;;;;;;21.22;61.78;100061.75;4908735;29;20067;-74
2021/07/12 02:31:39;;;;;;;0.25;0.15;;;;;;;21.30;61.60;100064.28;4907152;29;20048;-74
2021/07/12 02:34:08;;;;;;;0.57;0.13;;;;;;;21.32;61.25;100061.34;4909974;29;20120;-74
2021/07/12 02:36:39;;;;;;;0.10;0.10;;;;;;;21.33;61.25;100063.91;4907947;29;20092;-75
2021/07/12 02:39:09;;;;;;;0.10;0.10;;;;;;;21.36;61.53;100060.72;4910013;29;20087;-76
2021/07/12 02:41:37;;;;;;;0.20;0.20;;;;;;;21.46;61.03;100070.44;4912063;29;20489;-74
2021/07/12 02:44:05;;;;;;;0.20;0.20;;;;;;;21.55;60.61;100074.69;4893750;29;20558;-74
2021/07/12 02:46:31;;;;;;;0.13;0.13;;;;;;;21.63;60.58;100079.97;4913447;29;20089;-75
2021/07/12 02:48:58;;;;;;;0.10;0.10;;;;;;;21.74;59.96;100076.56;4894758;29;20051;-74
2021/07/12 02:51:31;;;;;;;0.10;0.10;;;;;;;21.82;59.75;100084.59;4910106;29;20058;-74
2021/07/12 02:54:01;;;;;;;0.20;0.20;;;;;;;21.92;59.66;100074.00;4908505;29;20462;-75
2021/07/12 02:56:27;;;;;;;0.20;0.20;;;;;;;22.04;58.81;100071.44;4890565;29;20051;-75
2021/07/12 02:58:53;;;;;;;0.20;0.20;;;;;;;22.06;58.86;100073.97;4904997;29;20052;-75
2021/07/12 03:01:21;;;;;;;0.80;0.20;;;;;;;22.26;58.21;100080.28;4897266;29;20087;-74
2021/07/12 03:03:48;;;;;;;0.22;0.20;;;;;;;22.39;57.78;100069.22;4910460;29;20055;-74
2021/07/12 03:06:16;;;;;;;0.20;0.20;;;;;;;22.70;56.36;100081.38;4912457;29;20040;-78
2021/07/12 03:09:10;;;;;;;0.20;0.20;;;;;;;22.86;56.01;100080.88;4872601;29;20098;-77
2021/07/12 03:11:56;;;;;;;0.20;0.20;;;;;;;23.03;56.08;100083.13;4891848;29;20136;-76
2021/07/12 03:14:30;;;;;;;0.10;0.10;;;;;;;23.16;55.07;100091.31;4903919;29;20074;-76
2021/07/12 03:16:57;;;;;;;0.47;0.20;;;;;;;23.28;54.84;100095.03;4911943;29;20047;-77
2021/07/12 03:19:32;;;;;;;0.30;0.20;;;;;;;23.40;54.78;100088.81;4890295;29;20040;-74
2021/07/12 03:22:00;;;;;;;0.30;0.30;;;;;;;23.64;53.50;100095.41;4894856;29;20044;-76
2021/07/12 03:24:31;;;;;;;0.65;0.30;;;;;;;23.69;53.64;100090.06;4909428;29;20486;-76
2021/07/12 03:26:58;;;;;;;0.20;0.20;;;;;;;23.67;53.85;100095.00;4895421;29;20132;-75
2021/07/12 03:29:28;;;;;;;0.20;0.20;;;;;;;23.78;53.85;100095.09;4896729;29;20044;-77
2021/07/12 03:31:58;;;;;;;0.40;0.20;;;;;;;24.01;52.87;100093.59;4908636;29;20056;-75
2021/07/12 03:34:27;;;;;;;0.30;0.30;;;;;;;24.12;52.38;100101.13;4904433;29;20158;-75
2021/07/12 03:36:53;;;;;;;0.20;0.20;;;;;;;24.29;52.21;100090.31;4895153;29;20040;-76
2021/07/12 03:39:22;;;;;;;0.20;0.20;;;;;;;24.45;50.71;100094.41;4880498;29;20138;-76
2021/07/12 03:41:48;;;;;;;0.20;0.20;;;;;;;24.49;50.85;100092.88;4911689;29;20048;-75
2021/07/12 03:44:13;;;;;;;0.30;0.20;;;;;;;24.57;50.71;100098.06;4908487;29;20040;-75
2021/07/12 03:46:44;;;;;;;0.35;0.30;;;;;;;24.81;50.18;100098.19;4909777;29;20051;-75
2021/07/12 03:49:14;;;;;;;0.25;0.20;;;;;;;25.01;49.68;100095.97;4907493;29;20385;-75
2021/07/12 03:51:48;;;;;;;0.32;0.20;;;;;;;25.30;49.05;100096.22;4903576;29;20060;-75
2021/07/12 03:54:15;;;;;;;0.20;0.20;;;;;;;25.58;48.76;100095.56;4908526;29;20048;-76
2021/07/12 03:56:42;;;;;;;0.30;0.30;;;;;;;25.65;48.44;100102.69;4922079;29;20046;-78
2021/07/12 03:59:08;;;;;;;0.30;0.20;;;;;;;25.84;47.44;100085.97;4911555;29;20183;-79
2021/07/12 04:01:33;;;;;;;0.20;0.20;;;;;;;26.04;46.97;100097.56;4906194;29;20169;-77
2021/07/12 04:03:59;;;;;;;0.90;0.20;;;;;;;26.16;47.09;100095.59;4908338;29;20047;-77
2021/07/12 04:06:30;;;;;;;0.20;0.20;;;;;;;26.15;46.36;100093.09;4878827;29;20527;-76
2021/07/12 04:08:58;;;;;;;0.20;0.20;;;;;;;26.16;46.95;100100.31;4890686;29;20056;-78
2021/07/12 04:11:31;;;;;;;0.30;0.30;;;;;;;26.45;46.25;100099.28;4879269;29;20036;-76
2021/07/12 04:13:57;;;;;;;0.35;0.25;;;;;;;26.48;45.86;100103.53;4911351;29;20080;-76
2021/07/12 04:16:23;;;;;;;0.20;0.20;;;;;;;26.73;45.12;100094.03;4889607;29;20048;-75
2021/07/12 04:18:49;;;;;;;0.20;0.20;;;;;;;26.79;45.20;100095.84;4911060;29;20052;-76
2021/07/12 04:21:15;;;;;;;0.30;0.30;;;;;;;27.15;44.31;100098.25;4905762;29;20048;-76
2021/07/12 04:23:41;;;;;;;0.77;0.30;;;;;;;27.33;44.08;100093.56;4909959;29;20038;-82
2021/07/12 04:26:07;;;;;;;0.70;0.30;;;;;;;27.54;43.30;100090.03;4904707;29;20126;-76
2021/07/12 04:28:32;;;;;;;0.40;0.40;;;;;;;27.53;43.57;100088.34;4906206;29;20490;-76
2021/07/12 04:30:58;;;;;;;0.40;0.40;;;;;;;27.69;43.04;100083.06;4906892;29;20471;-77
2021/07/12 04:33:25;;;;;;;1.27;0.30;;;;;;;27.94;42.83;100099.31;4911298;29;20494;-76
2021/07/12 04:35:52;;;;;;;0.75;0.40;;;;;;;28.09;41.87;100097.59;4913104;29;20076;-80
2021/07/12 04:38:18;;;;;;;0.40;0.40;;;;;;;28.22;42.00;100095.53;4893126;29;20064;-78
2021/07/12 04:40:44;;;;;;;0.30;0.30;;;;;;;28.46;41.34;100083.13;4906436;29;20136;-78
2021/07/12 04:43:10;;;;;;;0.30;0.30;;;;;;;28.51;41.76;100080.41;4908133;29;20058;-78
2021/07/12 04:45:40;;;;;;;0.55;0.50;;;;;;;28.86;40.43;100090.28;4895301;29;20067;-79
2021/07/12 04:48:06;;;;;;;0.40;0.40;;;;;;;29.06;40.10;100087.72;4892553;29;20064;-77
2021/07/12 04:50:33;;;;;;;0.40;0.35;;;;;;;29.33;39.46;100086.06;4891702;29;20043;-78
2021/07/12 04:52:59;;;;;;;0.40;0.40;;;;;;;29.53;38.56;100081.50;4912554;29;20044;-77
2021/07/12 04:55:25;;;;;;;0.43;0.43;;;;;;;29.75;38.52;100080.59;4912408;29;20501;-79
2021/07/12 04:57:51;;;;;;;0.55;0.40;;;;;;;29.91;38.20;100075.94;4898170;29;20374;-78
2021/07/12 05:00:18;;;;;;;0.47;0.47;;;;;;;30.06;37.87;100064.03;4909902;29;20140;-79
2021/07/12 05:02:44;;;;;;;0.32;0.32;;;;;;;30.26;38.25;100069.78;4904097;29;20391;-77
2021/07/12 05:05:11;;;;;;;0.50;0.50;;;;;;;30.57;37.69;100067.13;4896180;29;20126;-81
2021/07/12 05:07:39;;;;;;;0.45;0.45;;;;;;;30.72;37.04;100075.56;4903901;29;20056;-76
2021/07/12 05:10:06;;;;;;;0.47;0.47;;;;;;;30.73;37.32;100068.88;4905486;29;20044;-79
2021/07/12 05:12:33;;;;;;;0.50;0.50;;;;;;;30.84;37.22;100076.19;4903016;29;20042;-79
2021/07/12 05:14:59;;;;;;;2.63;0.60;;;;;;;31.16;36.71;100072.34;4899788;29;20051;-77
2021/07/12 05:17:25;;;;;;;0.50;0.50;;;;;;;31.29;36.88;100071.78;4883516;29;20463;-78
2021/07/12 05:19:51;;;;;;;0.60;0.60;;;;;;;31.55;36.18;100074.63;4903225;29;20044;-78
2021/07/12 05:22:17;;;;;;;0.65;0.50;;;;;;;31.90;35.32;100077.44;4889116;29;20055;-78
2021/07/12 05:24:43;;;;;;;0.60;0.52;;;;;;;32.01;34.63;100077.41;4882303;29;20044;-78
2021/07/12 05:27:09;;;;;;;0.50;0.50;;;;;;;32.06;34.66;100069.00;4890041;29;20074;-82
2021/07/12 05:29:35;;;;;;;0.50;0.50;;;;;;;32.36;34.68;100080.13;4889369;29;20058;-80
2021/07/12 05:32:01;;;;;;;0.50;0.50;;;;;;;32.59;34.20;100083.41;4887962;29;20115;-81
2021/07/12 05:34:28;;;;;;;0.60;0.60;;;;;;;32.57;34.37;100080.06;4908484;29;20113;-79
2021/07/12 05:36:54;;;;;;;0.63;0.50;;;;;;;32.83;33.64;100084.38;4888259;29;20048;-79
2021/07/12 05:39:20;;;;;;;0.55;0.55;;;;;;;33.05;32.56;100080.38;4902108;29;20574;-78
2021/07/12 05:41:47;;;;;;;0.50;0.50;;;;;;;33.19;32.50;100086.19;4899659;29;20052;-79
2021/07/12 05:44:13;;;;;;;0.50;0.50;;;;;;;33.33;32.78;100082.44;4904411;29;20044;-77
2021/07/12 05:46:40;;;;;;;1.23;0.50;;;;;;;33.77;31.51;100089.94;4898813;29;20063;-83
2021/07/12 05:49:06;;;;;;;0.50;0.50;;;;;;;34.01;31.97;100087.22;4882864;29;20498;-79
2021/07/12 05:51:32;;;;;;;0.60;0.60;;;;;;;34.36;30.88;100087.94;4903344;29;20345;-79
2021/07/12 05:53:58;;;;;;;0.50;0.50;;;;;;;34.15;30.98;100094.94;4901148;29;20039;-78
2021/07/12 05:56:24;;;;;;;0.70;0.70;;;;;;;34.60;30.64;100090.78;4904699;29;20171;-80
2021/07/12 05:58:51;;;;;;;0.50;0.50;;;;;;;34.29;31.07;100088.31;4912536;29;20093;-79
2021/07/12 06:01:17;;;;;;;0.85;0.70;;;;;;;34.72;30.13;100091.19;4899874;29;20125;-81
2021/07/12 06:03:43;;;;;;;0.50;0.50;;;;;;;34.87;29.81;100098.56;4877730;29;20055;-79
2021/07/12 06:06:09;;;;;;;0.60;0.60;;;;;;;35.00;30.27;100091.41;4901811;29;20044;-81
2021/07/12 06:08:35;;;;;;;0.60;0.60;;;;;;;35.19;29.93;100089.41;4902630;29;20042;-79
2021/07/12 06:11:01;;;;;;;1.08;0.77;;;;;;;35.28;30.02;100092.38;4902064;29;20367;-79
2021/07/12 06:13:27;;;;;;;0.70;0.70;;;;;;;35.32;29.56;100086.97;4906853;29;20043;-77
2021/07/12 06:15:54;;;;;;;0.70;0.70;;;;;;;35.30;29.61;100094.91;4899190;29;20040;-79
2021/07/12 06:18:21;;;;;;;0.70;0.70;;;;;;;35.69;28.77;100086.97;4883281;29;20052;-80
2021/07/12 06:20:47;;;;;;;0.70;0.70;;;;;;;35.71;28.89;100090.28;4898866;29;20048;-80
2021/07/12 06:23:12;;;;;;;0.70;0.70;;;;;;;36.32;28.38;100088.34;4909424;29;20046;-77
2021/07/12 06:25:39;;;;;;;1.02;0.93;;;;;;;36.49;27.64;100099.00;4896404;29;20431;-80
2021/07/12 06:28:05;;;;;;;0.70;0.70;;;;;;;36.52;27.70;100087.09;4901039;29;20037;-78
2021/07/12 06:30:31;;;;;;;0.70;0.70;;;;;;;36.69;27.88;100086.47;4907079;29;20120;-81
2021/07/12 06:32:57;;;;;;;1.05;0.73;;;;;;;36.77;27.35;100090.53;4908738;29;20052;-81
2021/07/12 06:35:24;;;;;;;0.70;0.70;;;;;;;36.77;27.19;100087.72;4900839;29;20413;-79
2021/07/12 06:37:50;;;;;;;0.70;0.70;;;;;;;37.08;26.79;100085.91;4902590;29;20040;-80
2021/07/12 06:40:16;;;;;;;0.70;0.70;;;;;;;37.00;26.56;100081.00;4899073;29;20108;-80
2021/07/12 06:42:42;;;;;;;0.70;0.70;;;;;;;36.59;27.07;100087.53;4899050;29;20048;-77
2021/07/12 06:45:08;;;;;;;0.82;0.82;;;;;;;36.34;27.44;100080.41;4901874;29;20410;-79
2021/07/12 06:47:35;;;;;;;1.05;1.00;;;;;;;37.21;26.16;100081.38;4885015;29;20376;-81
2021/07/12 06:50:04;;;;;;;0.80;0.80;;;;;;;37.76;25.08;100091.59;4896352;29;20044;-78
2021/07/12 06:52:30;;;;;;;0.70;0.70;;;;;;;38.10;24.78;100097.50;4911389;29;20038;-80
2021/07/12 06:54:57;;;;;;;0.60;0.60;;;;;;;38.36;23.71;100093.97;4875051;29;20064;-79
2021/07/12 06:57:23;;;;;;;0.88;0.88;;;;;;;38.23;23.59;100097.69;4918806;29;20048;-80
2021/07/12 06:59:51;;;;;;;0.80;0.80;;;;;;;38.64;23.33;100090.91;4905202;29;20060;-82
2021/07/12 07:02:18;;;;;;;0.80;0.80;;;;;;;38.75;22.26;100089.41;4890567;29;20040;-81
2021/07/12 07:04:49;;;;;;;0.70;0.70;;;;;;;38.76;23.02;100086.28;4907498;29;20490;-82
2021/07/12 07:07:16;;;;;;;0.93;0.85;;;;;;;38.73;22.97;100086.13;4900502;29;20144;-81
2021/07/12 07:09:42;;;;;;;0.80;0.80;;;;;;;39.23;22.33;100095.00;4904576;29;20132;-83
2021/07/12 07:12:09;;;;;;;0.80;0.80;;;;;;;39.66;21.77;100108.31;4899387;29;20032;-81
2021/07/12 07:14:44;;;;;;;0.80;0.80;;;;;;;39.70;22.29;100097.19;4910100;29;20072;-84
2021/07/12 07:17:11;;;;;;;0.80;0.80;;;;;;;40.32;21.54;100096.69;4914619;29;20059;-82
2021/07/12 07:19:37;;;;;;;0.93;0.90;;;;;;;40.26;21.58;100098.06;4900545;29;20519;-83
2021/07/12 07:22:03;;;;;;;1.17;1.10;;;;;;;40.39;21.19;100091.34;4896522;29;20062;-79
2021/07/12 07:25:03;;;;;;;1.00;1.00;;;;;;;40.48;20.67;100099.78;4904912;29;20048;-81
2021/07/12 07:27:32;;;;;;;0.80;0.80;;;;;;;40.49;20.15;100102.28;4879987;29;20044;-80
2021/07/12 07:29:59;;;;;;;0.90;0.90;;;;;;;40.59;20.61;100105.94;4911046;29;20142;-80
2021/07/12 07:32:25;;;;;;;0.73;0.73;;;;;;;40.65;20.50;100098.91;4912431;29;20044;-78
2021/07/12 07:34:51;;;;;;;0.80;0.80;;;;;;;40.53;20.72;100098.78;4911065;29;20059;-81
2021/07/12 07:37:17;;;;;;;0.75;0.75;;;;;;;40.16;20.84;100106.94;4908878;29;20116;-80
2021/07/12 07:39:44;;;;;;;0.77;0.77;;;;;;;40.09;21.22;100098.09;4909644;29;20052;-81
2021/07/12 07:42:10;;;;;;;0.80;0.80;;;;;;;40.21;20.65;100101.09;4913386;29;20597;-79
2021/07/12 07:44:36;;;;;;;0.80;0.80;;;;;;;40.27;20.61;100094.06;4903991;29;20040;-80
2021/07/12 07:47:03;;;;;;;0.93;0.80;;;;;;;40.09;21.22;100089.63;4918460;29;20092;-81
2021/07/12 07:49:31;;;;;;;0.80;0.80;;;;;;;40.19;20.67;100080.78;4919869;29;20099;-79
2021/07/12 07:51:58;;;;;;;1.00;1.00;;;;;;;40.69;20.57;100088.53;4914071;29;20049;-81
2021/07/12 07:54:24;;;;;;;0.80;0.80;;;;;;;40.51;20.39;100087.78;4909040;29;20043;-81
2021/07/12 07:56:51;;;;;;;1.05;1.05;;;;;;;40.69;20.06;100088.53;4878248;29;20048;-81
2021/07/12 07:59:17;;;;;;;1.10;1.00;;;;;;;40.13;20.64;100087.78;4907792;29;20510;-81
2021/07/12 08:01:46;;;;;;;0.88;0.88;;;;;;;39.96;21.19;100080.13;4897917;29;20040;-84
2021/07/12 08:04:13;;;;;;;1.00;1.00;;;;;;;40.27;20.88;100077.06;4863078;29;20672;-78
2021/07/12 08:06:39;;;;;;;0.90;0.90;;;;;;;40.40;20.70;100081.66;4912874;29;20131;-84
2021/07/12 08:09:05;;;;;;;1.00;1.00;;;;;;;41.16;20.24;100079.91;4880828;29;20060;-82
2021/07/12 08:11:32;;;;;;;0.90;0.90;;;;;;;41.40;19.81;100077.19;4907170;29;20064;-82
2021/07/12 08:13:58;;;;;;;1.00;1.00;;;;;;;41.61;19.77;100073.50;4909532;29;20075;-79
2021/07/12 08:16:25;;;;;;;0.88;0.88;;;;;;;41.73;19.27;100079.22;4895068;29;20339;-81
2021/07/12 08:18:51;;;;;;;0.85;0.85;;;;;;;42.08;19.21;100081.69;4908191;29;20104;-81
2021/07/12 08:21:17;;;;;;;0.80;0.80;;;;;;;42.04;18.68;100080.75;4905140;29;20051;-78
2021/07/12 08:23:43;;;;;;;1.00;1.00;;;;;;;41.95;18.48;100082.88;4880289;29;20048;-82
2021/07/12 08:26:11;;;;;;;0.90;0.90;;;;;;;42.17;18.26;100079.59;4911637;29;20447;-82
2021/07/12 08:28:37;;;;;;;1.10;1.10;;;;;;;41.27;19.24;100072.63;4864955;29;20072;-81
2021/07/12 08:31:05;;;;;;;0.90;0.90;;;;;;;41.07;19.88;100073.47;4895665;29;20104;-84
2021/07/12 08:33:31;;;;;;;1.08;1.08;;;;;;;41.46;19.57;100071.31;4897771;29;20071;-81
2021/07/12 08:35:59;;;;;;;1.00;1.00;;;;;;;41.22;19.41;100074.84;4884926;29;20128;-83
2021/07/12 08:38:25;;;;;;;0.90;0.90;;;;;;;41.08;20.34;100072.28;4905532;29;20051;-81
2021/07/12 08:40:56;;;;;;;0.90;0.90;;;;;;;41.24;19.10;100076.16;4894316;29;20157;-81
2021/07/12 08:43:23;;;;;;;0.85;0.85;;;;;;;41.87;18.05;100076.09;4880260;29;20040;-79
2021/07/12 08:45:50;;;;;;;0.90;0.90;;;;;;;41.97;18.54;100080.50;4909550;29;20055;-81
2021/07/12 08:48:16;;;;;;;0.90;0.90;;;;;;;39.25;20.77;100057.94;4898500;29;20040;-83
2021/07/12 08:50:43;;;;;;;1.10;1.10;;;;;;;38.68;22.14;100055.97;4917145;29;20142;-81
2021/07/12 08:53:11;;;;;;;1.00;1.00;;;;;;;38.69;22.82;100060.50;4902030;29;20528;-81
2021/07/12 08:55:38;;;;;;;1.00;1.00;;;;;;;38.42;22.83;100067.22;4909013;29;20119;-82
2021/07/12 08:58:19;;;;;;;0.90;0.90;;;;;;;38.77;21.66;100058.84;4909843;29;20044;-80
2021/07/12 09:01:03;;;;;;;0.90;0.90;;;;;;;40.45;20.29;100050.31;4911528;29;20059;-82
2021/07/12 09:03:33;;;;;;;1.00;1.00;;;;;;;39.51;20.91;100055.91;4901782;29;20151;-79
2021/07/12 09:06:10;;;;;;;0.90;0.90;;;;;;;40.62;20.37;100057.06;4882669;29;20051;-81
2021/07/12 09:08:49;;;;;;;0.82;0.82;;;;;;;40.54;20.28;100060.75;4892213;29;20036;-84
2021/07/12 09:11:28;;;;;;;0.90;0.90;;;;;;;40.87;19.86;100044.72;4910386;29;20056;-81
2021/07/12 09:14:11;;;;;;;0.90;0.90;;;;;;;41.40;19.39;100045.13;4907586;29;20045;-81
2021/07/12 09:16:41;;;;;;;0.95;0.95;;;;;;;41.84;18.75;100054.91;4892671;29;20146;-80
2021/07/12 09:19:22;;;;;;;0.80;0.80;;;;;;;41.61;18.90;100050.78;4893929;29;20044;-80
2021/07/12 09:21:57;;;;;;;0.90;0.90;;;;;;;42.11;18.45;100046.91;4905001;29;20055;-83
2021/07/12 09:24:25;;;;;;;0.80;0.80;;;;;;;42.44;17.89;100054.53;4891829;29;20040;-79
2021/07/12 09:26:55;;;;;;;0.90;0.90;;;;;;;42.18;17.60;100058.50;4919395;29;20066;-82
2021/07/12 09:29:31;;;;;;;1.00;0.90;;;;;;;42.23;17.50;100055.41;4895575;29;20071;-81
2021/07/12 09:32:00;;;;;;;0.80;0.80;;;;;;;43.05;17.35;100046.75;4906329;29;20064;-83
2021/07/12 09:34:26;;;;;;;0.90;0.90;;;;;;;43.03;17.49;100051.13;4908066;29;20044;-83
2021/07/12 09:36:53;;;;;;;0.80;0.80;;;;;;;43.09;17.36;100047.69;4914538;29;20108;-82
2021/07/12 09:39:29;;;;;;;0.80;0.80;;;;;;;42.74;17.38;100046.56;4896786;29;20156;-81
2021/07/12 09:42:23;;;;;;;0.70;0.70;;;;;;;43.12;17.35;100049.00;4911292;29;20127;-81
2021/07/12 09:44:54;;;;;;;0.80;0.80;;;;;;;43.67;16.79;100044.50;4917327;29;20048;-82
2021/07/12 09:47:22;;;;;;;;;;;;;;;43.75;16.49;100046.34;4901355;29;20075;-81
2021/07/12 09:49:50;;;;;;;0.70;0.70;;;;;;;43.54;16.76;100051.47;4900364;29;20098;-83
2021/07/12 09:52:19;;;;;;;0.80;0.80;;;;;;;43.70;17.25;100055.19;4896848;29;20073;-82
2021/07/12 09:54:47;;;;;;;0.75;0.75;;;;;;;43.49;16.54;100043.19;4928126;29;20075;-81
2021/07/12 09:57:16;;;;;;;0.82;0.80;;;;;;;43.83;16.58;100043.69;4905260;29;20091;-82
2021/07/12 10:00:00;;;;;;;0.90;0.90;;;;;;;42.98;17.81;100054.22;4913077;29;20098;-83
2021/07/12 10:02:29;;;;;;;0.80;0.80;;;;;;;43.44;17.15;100040.56;4923945;29;20059;-84
2021/07/12 10:05:01;;;;;;;0.80;0.80;;;;;;;43.81;17.14;100044.91;4923142;29;20156;-82
2021/07/12 10:07:29;;;;;;;0.75;0.75;;;;;;;43.89;17.53;100034.56;4891210;29;20071;-82
2021/07/12 10:09:57;;;;;;;0.80;0.80;;;;;;;43.70;17.77;100043.78;4900587;29;20486;-84
2021/07/12 10:12:25;;;;;;;0.70;0.70;;;;;;;43.80;17.24;100043.22;4883838;29;20103;-82
2021/07/12 10:14:53;;;;;;;0.82;0.82;;;;;;;43.87;17.43;100036.91;4899035;29;20137;-82
2021/07/12 10:17:20;;;;;;;0.70;0.70;;;;;;;43.14;17.41;100026.69;4912035;29;20506;-82
2021/07/12 10:19:47;;;;;;;0.80;0.80;;;;;;;43.37;17.31;100034.66;4904100;29;20040;-83
2021/07/12 10:22:14;;;;;;;0.70;0.70;;;;;;;44.03;16.82;100036.97;4904199;29;20268;-80
2021/07/12 10:24:44;;;;;;;0.80;0.80;;;;;;;43.41;16.81;100027.06;4894864;29;20051;-83
2021/07/12 10:27:27;;;;;;;0.85;0.85;;;;;;;42.84;17.39;100018.47;4903630;29;20413;-83
2021/07/12 10:29:57;;;;;;;0.80;0.80;;;;;;;42.94;17.12;100013.47;4901787;29;20116;-83
2021/07/12 10:32:25;;;;;;;0.70;0.70;;;;;;;43.45;17.38;100013.75;4909107;29;20538;-80
2021/07/12 10:34:54;;;;;;;0.80;0.80;;;;;;;43.33;16.91;100012.63;4869160;29;20103;-82
2021/07/12 10:37:34;;;;;;;0.70;0.70;;;;;;;43.00;16.82;100020.53;4915447;29;20064;-84
2021/07/12 10:40:18;;;;;;;0.70;0.70;;;;;;;42.68;16.17;100020.41;4888609;29;20056;-81
2021/07/12 10:42:45;;;;;;;0.75;0.75;;;;;;;41.65;17.23;100020.50;4902777;29;20048;-81
2021/07/12 10:45:34;;;;;;;0.80;0.80;;;;;;;41.08;18.53;100007.03;4905204;29;20112;-83
2021/07/12 10:48:04;;;;;;;0.70;0.70;;;;;;;40.41;19.56;100006.81;4899395;29;20075;-82
2021/07/12 10:50:53;;;;;;;0.70;0.70;;;;;;;41.01;17.71;100015.28;4909863;29;20044;-80
2021/07/12 10:53:22;;;;;;;0.75;0.75;;;;;;;41.22;17.22;100007.56;4903703;29;20548;-78
2021/07/12 10:55:57;;;;;;;0.73;0.73;;;;;;;41.38;16.74;100014.25;4917672;29;20146;-79
2021/07/12 10:58:27;;;;;;;0.73;0.70;;;;;;;41.76;17.15;100007.53;4891492;29;20056;-79
2021/07/12 11:00:55;;;;;;;0.70;0.70;;;;;;;42.13;16.29;99999.09;4909451;29;20048;-80
2021/07/12 11:03:41;;;;;;;0.80;0.80;;;;;;;42.76;15.96;100002.38;4889619;29;20040;-80
2021/07/12 11:06:10;;;;;;;0.80;0.80;;;;;;;42.82;16.17;99998.09;4899636;29;20557;-79
2021/07/12 11:08:44;;;;;;;1.08;0.93;;;;;;;42.81;16.69;100004.94;4900074;29;20482;-81
2021/07/12 11:11:12;;;;;;;0.73;0.73;;;;;;;42.09;18.06;99998.97;4901023;29;20542;-79
2021/07/12 11:13:49;;;;;;;0.70;0.70;;;;;;;42.70;18.19;100000.94;4901425;29;20040;-77
2021/07/12 11:16:18;;;;;;;0.70;0.70;;;;;;;42.70;18.52;100000.13;4904482;29;20064;-80
2021/07/12 11:18:44;;;;;;;1.00;0.85;;;;;;;42.73;18.31;100000.25;4906887;29;20135;-79
2021/07/12 11:21:11;;;;;;;0.65;0.65;;;;;;;42.91;18.12;99994.28;4901716;29;20426;-80
2021/07/12 11:23:49;;;;;;;0.75;0.75;;;;;;;43.00;18.14;100003.47;4908334;29;20059;-79
2021/07/12 11:26:23;;;;;;;0.60;0.60;;;;;;;43.07;18.30;99998.84;4904384;29;20036;-78
2021/07/12 11:29:13;;;;;;;0.98;0.88;;;;;;;43.36;18.15;99993.16;4900105;29;20143;-80
2021/07/12 11:31:42;;;;;;;0.85;0.85;;;;;;;43.15;17.92;99999.91;4876275;29;20157;-77
2021/07/12 11:34:15;;;;;;;0.60;0.60;;;;;;;39.97;20.39;100003.34;4889676;29;20577;-79
2021/07/12 11:37:05;;;;;;;0.70;0.70;;;;;;;40.89;19.19;99996.16;4902771;29;20059;-78
2021/07/12 11:39:36;;;;;;;0.77;0.77;;;;;;;41.31;18.79;99999.78;4907410;29;20051;-79